OTBD

Doha International Airport

Doha, Qatar
TAF OTBD 211700Z 2118/2224 33010KT CAVOK BECMG 2204/2206 33019KT PROB30 TEMPO 2207/2209 33019G29KT 7000 NSC BECMG 2214/2216 33009KT BECMG 2219/2221 26007KT
Issued Valid From Valid To
Jun-21 @ 17:00 UTC
(an hour ago)
Jun-21 @ 18:00 UTC
(8 minutes ago)
Jun-23 @ 00:00 UTC
(-1 days ago)
Jun-21 @ 18:00 to Jun-22 @ 04:00
TAF OTBD 211700Z 2118/2224 33010KT CAVOK
Wind Visibility Clouds Conditions
330° at 10 knots 10,000+ meters
  • No significant clouds
Becoming Jun-22 @ 04:00 to Jun-22 @ 14:00
BECMG 2204/2206 33019KT
Wind Visibility Clouds Conditions
330° at 19 knots 10,000+ meters
  • No significant clouds
Temporary  (Probability 30%) Jun-22 @ 07:00 to Jun-22 @ 09:00
PROB30 TEMPO 2207/2209 33019G29KT 7000 NSC
Wind Visibility Clouds
330° at 19 knots
 Gusting to 29 knots
7,001 meters
  • No significant clouds
Becoming Jun-22 @ 14:00 to Jun-22 @ 19:00
BECMG 2214/2216 33009KT
Wind Visibility Clouds Conditions
330° at 9 knots 10,000+ meters
  • No significant clouds
Becoming Jun-22 @ 19:00 to Jun-23 @ 00:00
BECMG 2219/2221 26007KT
Wind Visibility Clouds Conditions
260° at 7 knots 10,000+ meters
  • No significant clouds
TAF OTBD 211700Z 2118/2224 33010KT CAVOK BECMG 2204/2206 33019KT PROB30 TEMPO 2207/2209 33019G29KT 7000 NSC BECMG 2214/2216 33009KT BECMG 2219/2221 26007KT
Issued Jun-21 @ 17:00 UTC
(an hour ago)
Valid From Jun-21 @ 18:00 UTC
(8 minutes ago)
Valid To Jun-23 @ 00:00 UTC
(-1 days ago)
Jun-21 @ 18:00 - Jun-22 @ 04:00
Wind Visibility
330° at 10 knots 10,000+ meters
Clouds
  • No significant clouds
Conditions
Becoming Jun-22 @ 04:00 - Jun-22 @ 14:00
Wind Visibility
330° at 19 knots 10,000+ meters
Clouds
  • No significant clouds
Conditions
Probability 30% Temporary Jun-22 @ 07:00 - Jun-22 @ 09:00
Wind Visibility
330° at 19 knots
 Gusting to 29 knots
7,001 meters
Clouds
  • No significant clouds
Becoming Jun-22 @ 14:00 - Jun-22 @ 19:00
Wind Visibility
330° at 9 knots 10,000+ meters
Clouds
  • No significant clouds
Conditions
Becoming Jun-22 @ 19:00 - Jun-23 @ 00:00
Wind Visibility
260° at 7 knots 10,000+ meters
Clouds
  • No significant clouds
Conditions